Time;durP1;ratioP1;P1;durP2;ratioP2;P2;SDS_P1;SDS_P2;PMS_P1;PMS_P2;Temp;Humidity;BMP_temperature;BMP_pressure;BME280_temperature;BME280_humidity;BME280_pressure;Samples;Min_cycle;Max_cycle;Signal;HPM_P1;HPM_P2
2022/09/11 00:00:54;;;;;;;149.02;137.85;;;;;;;;;;10152305;28;20050;-68
2022/09/11 00:05:50;;;;;;;152.68;140.38;;;;;;;;;;10152167;28;20058;-68
2022/09/11 00:10:47;;;;;;;153.00;140.90;;;;;;;;;;10155410;28;20559;-68
2022/09/11 00:15:44;;;;;;;146.77;135.13;;;;;;;;;;10159378;28;20063;-68
2022/09/11 00:20:48;;;;;;;144.27;132.40;;;;;;;;;;10159200;28;20086;-68
2022/09/11 00:25:45;;;;;;;141.68;130.30;;;;;;;;;;10158521;28;20038;-68
2022/09/11 00:30:42;;;;;;;144.57;133.10;;;;;;;;;;10158952;28;20530;-68
2022/09/11 00:35:39;;;;;;;148.27;135.88;;;;;;;;;;10157999;28;20049;-69
2022/09/11 00:40:45;;;;;;;143.43;131.32;;;;;;;;;;10159161;28;20044;-69
2022/09/11 00:45:42;;;;;;;142.70;131.60;;;;;;;;;;10158194;28;20038;-69
2022/09/11 00:50:42;;;;;;;141.52;130.27;;;;;;;;;;10158301;28;20400;-69
2022/09/11 00:55:41;;;;;;;143.07;131.68;;;;;;;;;;10158468;28;20436;-69
2022/09/11 01:00:38;;;;;;;149.18;137.05;;;;;;;;;;10157613;28;20049;-69
2022/09/11 01:05:36;;;;;;;144.70;132.75;;;;;;;;;;10145461;28;20420;-69
2022/09/11 01:10:52;;;;;;;144.85;132.63;;;;;;;;;;10117705;28;20039;-69
2022/09/11 01:16:04;;;;;;;137.15;125.35;;;;;;;;;;10140219;28;20053;-69
2022/09/11 01:21:07;;;;;;;138.70;127.28;;;;;;;;;;10156765;28;20058;-69
2022/09/11 01:26:22;;;;;;;136.23;124.90;;;;;;;;;;10141208;28;20050;-69
2022/09/11 01:31:22;;;;;;;138.85;125.85;;;;;;;;;;10144536;28;20055;-69
2022/09/11 01:36:20;;;;;;;136.90;124.70;;;;;;;;;;10142506;28;20046;-69
2022/09/11 01:41:26;;;;;;;139.23;127.75;;;;;;;;;;10155892;28;20042;-69
2022/09/11 01:46:25;;;;;;;135.90;124.82;;;;;;;;;;10156137;28;20047;-69
2022/09/11 01:51:24;;;;;;;138.00;125.45;;;;;;;;;;10155388;28;20428;-69
2022/09/11 01:56:22;;;;;;;135.65;124.43;;;;;;;;;;10144234;28;20413;-69
2022/09/11 02:01:21;;;;;;;135.15;123.80;;;;;;;;;;10116306;28;20051;-69
2022/09/11 02:06:21;;;;;;;133.23;122.38;;;;;;;;;;10141816;28;20539;-69
2022/09/11 02:11:18;;;;;;;140.20;128.93;;;;;;;;;;10155297;28;20505;-69
2022/09/11 02:16:18;;;;;;;141.80;128.98;;;;;;;;;;10146838;28;20046;-68
2022/09/11 02:21:14;;;;;;;134.77;123.05;;;;;;;;;;10147678;28;20413;-68
2022/09/11 02:26:11;;;;;;;136.70;124.80;;;;;;;;;;10139977;28;20039;-68
2022/09/11 02:31:08;;;;;;;133.07;121.47;;;;;;;;;;10142913;28;20047;-68
2022/09/11 02:36:23;;;;;;;136.80;123.78;;;;;;;;;;10138468;28;20659;-69
2022/09/11 02:41:23;;;;;;;136.88;124.65;;;;;;;;;;10131533;28;20043;-69
2022/09/11 02:46:37;;;;;;;135.98;123.38;;;;;;;;;;10141154;28;20056;-68
2022/09/11 02:51:43;;;;;;;133.55;121.50;;;;;;;;;;10114931;28;20538;-68
2022/09/11 02:56:42;;;;;;;134.75;122.68;;;;;;;;;;10139864;28;20054;-69
2022/09/11 03:01:46;;;;;;;137.63;125.32;;;;;;;;;;10114008;28;20046;-68
2022/09/11 03:06:42;;;;;;;132.90;121.43;;;;;;;;;;10132748;28;20072;-68
2022/09/11 03:11:39;;;;;;;133.13;122.47;;;;;;;;;;10113923;28;20426;-69
2022/09/11 03:16:38;;;;;;;133.57;123.18;;;;;;;;;;10127125;28;20608;-68
2022/09/11 03:21:34;;;;;;;129.57;119.03;;;;;;;;;;10114050;28;20047;-69
2022/09/11 03:26:32;;;;;;;131.75;120.47;;;;;;;;;;10123101;28;20179;-68
2022/09/11 03:31:28;;;;;;;131.07;120.63;;;;;;;;;;10113830;28;20055;-68
2022/09/11 03:36:25;;;;;;;132.52;121.82;;;;;;;;;;10122237;28;20097;-69
2022/09/11 03:41:21;;;;;;;126.32;115.68;;;;;;;;;;10113550;28;20045;-69
2022/09/11 03:46:17;;;;;;;125.78;115.53;;;;;;;;;;10142584;28;20042;-68
2022/09/11 03:51:14;;;;;;;126.75;116.38;;;;;;;;;;10154460;28;20051;-69
2022/09/11 03:56:11;;;;;;;130.55;120.40;;;;;;;;;;10137691;28;20418;-68
2022/09/11 04:01:08;;;;;;;130.35;120.28;;;;;;;;;;10121003;28;20054;-69
2022/09/11 04:06:04;;;;;;;132.02;121.38;;;;;;;;;;10144899;28;20034;-69
2022/09/11 04:11:02;;;;;;;129.32;119.18;;;;;;;;;;10159666;28;20053;-69
2022/09/11 04:16:00;;;;;;;128.23;117.22;;;;;;;;;;10152250;28;20042;-69
2022/09/11 04:20:56;;;;;;;131.45;121.10;;;;;;;;;;10120491;28;20560;-69
2022/09/11 04:25:52;;;;;;;131.93;121.88;;;;;;;;;;10142626;28;20039;-69
2022/09/11 04:30:48;;;;;;;134.73;124.40;;;;;;;;;;10159119;28;20524;-69
2022/09/11 04:35:44;;;;;;;129.48;119.88;;;;;;;;;;10157606;28;20044;-69
2022/09/11 04:40:41;;;;;;;132.55;122.60;;;;;;;;;;10158991;28;20042;-69
2022/09/11 04:45:39;;;;;;;135.68;125.75;;;;;;;;;;10147546;28;20059;-69
2022/09/11 04:50:35;;;;;;;137.15;127.05;;;;;;;;;;10158796;28;20050;-69
2022/09/11 04:55:31;;;;;;;137.93;127.70;;;;;;;;;;10140025;28;20420;-69
2022/09/11 05:00:27;;;;;;;134.27;124.45;;;;;;;;;;10153322;28;20057;-69
2022/09/11 05:05:24;;;;;;;131.32;121.53;;;;;;;;;;10137556;28;20421;-69
2022/09/11 05:10:20;;;;;;;137.98;127.65;;;;;;;;;;10134585;28;20055;-70
2022/09/11 05:15:18;;;;;;;125.80;116.20;;;;;;;;;;10136264;28;20134;-69
2022/09/11 05:20:15;;;;;;;122.60;112.85;;;;;;;;;;10157704;28;20046;-69
2022/09/11 05:25:12;;;;;;;121.78;112.15;;;;;;;;;;10157115;28;20061;-70
2022/09/11 05:30:08;;;;;;;116.25;107.25;;;;;;;;;;10156528;28;20054;-69
2022/09/11 05:35:06;;;;;;;116.20;106.82;;;;;;;;;;10156656;28;20064;-70
2022/09/11 05:40:03;;;;;;;150.20;138.60;;;;;;;;;;10156156;28;20069;-69
2022/09/11 05:44:59;;;;;;;150.13;138.73;;;;;;;;;;10156624;28;20057;-70
2022/09/11 05:49:55;;;;;;;156.07;144.35;;;;;;;;;;10155080;28;20064;-70
2022/09/11 05:54:52;;;;;;;156.02;144.15;;;;;;;;;;10155591;28;20524;-70
2022/09/11 05:59:48;;;;;;;148.38;137.52;;;;;;;;;;10156163;28;20054;-70
2022/09/11 06:04:45;;;;;;;150.95;140.27;;;;;;;;;;10155167;28;20436;-70
2022/09/11 06:09:41;;;;;;;152.25;141.63;;;;;;;;;;10154146;28;20051;-70
2022/09/11 06:14:37;;;;;;;155.93;145.23;;;;;;;;;;10128175;28;20126;-70
2022/09/11 06:19:34;;;;;;;148.55;138.55;;;;;;;;;;10154702;28;20050;-69
2022/09/11 06:24:30;;;;;;;149.88;139.88;;;;;;;;;;10154527;28;20049;-69
2022/09/11 06:29:26;;;;;;;156.93;146.80;;;;;;;;;;10154225;28;20057;-70
2022/09/11 06:34:22;;;;;;;123.18;115.50;;;;;;;;;;10152601;28;20047;-70
2022/09/11 06:39:21;;;;;;;135.30;127.07;;;;;;;;;;10114894;28;20424;-70
2022/09/11 06:44:18;;;;;;;146.88;138.18;;;;;;;;;;10127634;28;20046;-69
2022/09/11 06:49:15;;;;;;;153.02;143.82;;;;;;;;;;10153971;28;20061;-70
2022/09/11 06:54:11;;;;;;;158.70;149.10;;;;;;;;;;10144846;28;20508;-70
2022/09/11 06:59:07;;;;;;;129.27;121.65;;;;;;;;;;10154012;28;20050;-70
2022/09/11 07:04:04;;;;;;;128.02;120.57;;;;;;;;;;10152722;28;20043;-69
2022/09/11 07:09:01;;;;;;;125.55;118.10;;;;;;;;;;10153542;28;20042;-70
2022/09/11 07:13:58;;;;;;;117.47;110.47;;;;;;;;;;10152821;28;20419;-69
2022/09/11 07:18:54;;;;;;;125.88;118.63;;;;;;;;;;10151447;28;20050;-70
2022/09/11 07:23:56;;;;;;;126.95;119.78;;;;;;;;;;10153201;28;20049;-69
2022/09/11 07:28:54;;;;;;;126.63;119.38;;;;;;;;;;10137980;28;20047;-69
2022/09/11 07:33:51;;;;;;;128.45;121.22;;;;;;;;;;10120356;28;20050;-69
2022/09/11 07:38:48;;;;;;;126.18;119.18;;;;;;;;;;10152146;28;20050;-70
2022/09/11 07:43:44;;;;;;;133.50;126.32;;;;;;;;;;10152952;28;20066;-70
2022/09/11 07:48:41;;;;;;;124.75;118.03;;;;;;;;;;10129963;28;20073;-70
2022/09/11 07:53:42;;;;;;;79.25;74.80;;;;;;;;;;10117922;28;20134;-70
2022/09/11 07:58:40;;;;;;;75.82;71.65;;;;;;;;;;10152044;28;20420;-70
2022/09/11 08:03:36;;;;;;;71.25;67.30;;;;;;;;;;10152477;28;20039;-70
2022/09/11 08:08:33;;;;;;;68.75;64.85;;;;;;;;;;10151617;28;20047;-70
2022/09/11 08:13:29;;;;;;;88.32;83.68;;;;;;;;;;10152399;28;20054;-70
2022/09/11 08:18:26;;;;;;;107.75;102.15;;;;;;;;;;10151527;28;20061;-70
2022/09/11 08:23:22;;;;;;;86.72;82.13;;;;;;;;;;10151798;28;20057;-70
2022/09/11 08:28:18;;;;;;;86.57;81.63;;;;;;;;;;10112940;28;20612;-70
2022/09/11 08:33:18;;;;;;;71.32;67.53;;;;;;;;;;10119938;28;20093;-70
2022/09/11 08:38:15;;;;;;;56.63;53.22;;;;;;;;;;10157884;28;20046;-70
2022/09/11 08:43:15;;;;;;;49.30;46.60;;;;;;;;;;10158214;28;20698;-70
2022/09/11 08:48:12;;;;;;;39.95;37.65;;;;;;;;;;10158170;28;20055;-70
2022/09/11 08:53:14;;;;;;;47.72;45.13;;;;;;;;;;10158045;28;20417;-71
2022/09/11 08:58:20;;;;;;;39.63;37.33;;;;;;;;;;10158575;28;20050;-70
2022/09/11 09:03:16;;;;;;;31.77;29.70;;;;;;;;;;10157394;28;20042;-70
2022/09/11 09:08:18;;;;;;;31.83;30.02;;;;;;;;;;10157077;28;20042;-70
2022/09/11 09:13:33;;;;;;;32.80;30.98;;;;;;;;;;10157940;28;20512;-69
2022/09/11 09:18:31;;;;;;;38.17;35.88;;;;;;;;;;10156910;28;20137;-70
2022/09/11 09:23:29;;;;;;;28.65;26.98;;;;;;;;;;10157013;28;20046;-70
2022/09/11 09:28:33;;;;;;;25.80;24.25;;;;;;;;;;10156484;28;20524;-70
2022/09/11 09:33:30;;;;;;;21.02;19.73;;;;;;;;;;10156474;28;20042;-70
2022/09/11 09:38:27;;;;;;;18.10;17.00;;;;;;;;;;10156376;28;20042;-70
2022/09/11 09:43:35;;;;;;;20.38;19.17;;;;;;;;;;10146095;28;20038;-70
2022/09/11 09:48:33;;;;;;;18.88;17.77;;;;;;;;;;10156314;28;20060;-70
2022/09/11 09:53:32;;;;;;;17.77;16.70;;;;;;;;;;10154880;28;20069;-71
2022/09/11 09:58:33;;;;;;;17.77;16.77;;;;;;;;;;10155091;28;20065;-70
2022/09/11 10:03:29;;;;;;;15.32;14.32;;;;;;;;;;10155886;28;20045;-69
2022/09/11 10:08:34;;;;;;;14.82;13.82;;;;;;;;;;10154905;28;20046;-70
2022/09/11 10:13:36;;;;;;;15.30;14.40;;;;;;;;;;10155658;28;20042;-69
2022/09/11 10:18:36;;;;;;;11.82;11.05;;;;;;;;;;10154476;28;20565;-69
2022/09/11 10:23:42;;;;;;;12.00;11.20;;;;;;;;;;10154967;28;20552;-70
2022/09/11 10:28:39;;;;;;;11.80;11.00;;;;;;;;;;10154074;28;20038;-70
2022/09/11 10:33:38;;;;;;;10.70;9.90;;;;;;;;;;10154922;28;20042;-70
2022/09/11 10:38:37;;;;;;;11.98;11.07;;;;;;;;;;10122412;28;20046;-70
2022/09/11 10:43:54;;;;;;;11.88;11.07;;;;;;;;;;10119399;28;20415;-71
2022/09/11 10:48:54;;;;;;;14.52;13.63;;;;;;;;;;10114378;28;20276;-70
2022/09/11 10:53:56;;;;;;;11.13;10.40;;;;;;;;;;10132951;28;20727;-70
2022/09/11 10:58:56;;;;;;;10.25;9.55;;;;;;;;;;10153964;28;20072;-70
2022/09/11 11:03:54;;;;;;;10.80;9.80;;;;;;;;;;10133306;28;20047;-70
2022/09/11 11:08:53;;;;;;;13.45;12.25;;;;;;;;;;10153819;28;20046;-70
2022/09/11 11:14:26;;;;;;;10.73;9.93;;;;;;;;;;10152902;28;20046;-70
2022/09/11 11:19:31;;;;;;;9.20;8.50;;;;;;;;;;10149703;28;20519;-70
2022/09/11 11:24:39;;;;;;;8.80;8.20;;;;;;;;;;10153487;28;20049;-70
2022/09/11 11:29:49;;;;;;;7.90;7.40;;;;;;;;;;10123691;28;20050;-71
2022/09/11 11:35:04;;;;;;;8.02;7.53;;;;;;;;;;10127154;28;20057;-70
2022/09/11 11:40:19;;;;;;;8.70;8.00;;;;;;;;;;10114181;28;20065;-70
2022/09/11 11:45:16;;;;;;;8.60;8.00;;;;;;;;;;10130465;28;20046;-70
2022/09/11 11:50:24;;;;;;;7.95;7.45;;;;;;;;;;10153519;28;20050;-70
2022/09/11 11:55:35;;;;;;;8.15;7.65;;;;;;;;;;10152626;28;20121;-70
2022/09/11 12:00:38;;;;;;;8.70;8.00;;;;;;;;;;10152535;28;20500;-70
2022/09/11 12:05:35;;;;;;;8.70;8.00;;;;;;;;;;10153326;28;20054;-70
2022/09/11 12:10:33;;;;;;;8.80;8.20;;;;;;;;;;10160179;28;20558;-69
2022/09/11 12:15:31;;;;;;;9.30;8.60;;;;;;;;;;10159795;28;20065;-69
2022/09/11 12:20:36;;;;;;;9.32;8.63;;;;;;;;;;10159455;28;20043;-70
2022/09/11 12:25:34;;;;;;;8.63;8.02;;;;;;;;;;10159948;28;20046;-69
2022/09/11 12:30:50;;;;;;;8.52;7.93;;;;;;;;;;10159152;28;20046;-69
2022/09/11 12:35:48;;;;;;;8.25;7.65;;;;;;;;;;10158485;28;20049;-70
2022/09/11 12:40:51;;;;;;;8.05;7.55;;;;;;;;;;10159144;28;20053;-70
2022/09/11 12:45:47;;;;;;;7.82;7.22;;;;;;;;;;10158287;28;20408;-70
2022/09/11 12:50:55;;;;;;;7.78;7.18;;;;;;;;;;10158462;28;20129;-70
2022/09/11 12:55:53;;;;;;;7.20;6.70;;;;;;;;;;10157996;28;20420;-69
2022/09/11 13:00:59;;;;;;;7.82;7.32;;;;;;;;;;10158897;28;20038;-70
2022/09/11 13:06:01;;;;;;;8.43;7.72;;;;;;;;;;10155436;28;20053;-70
2022/09/11 13:11:16;;;;;;;8.13;7.60;;;;;;;;;;10158110;28;20049;-70
2022/09/11 13:16:16;;;;;;;8.55;7.93;;;;;;;;;;10146943;28;20516;-69
2022/09/11 13:21:14;;;;;;;8.25;7.60;;;;;;;;;;10157136;28;20050;-69
2022/09/11 13:26:14;;;;;;;8.13;7.60;;;;;;;;;;10157764;28;20556;-70
2022/09/11 13:31:15;;;;;;;8.00;7.40;;;;;;;;;;10140660;28;20054;-70
2022/09/11 13:36:13;;;;;;;8.50;7.80;;;;;;;;;;10143130;28;20074;-70
2022/09/11 13:41:14;;;;;;;9.68;8.90;;;;;;;;;;10156802;28;20507;-70
2022/09/11 13:46:17;;;;;;;8.77;8.07;;;;;;;;;;10157061;28;20050;-70
2022/09/11 13:51:33;;;;;;;7.40;6.90;;;;;;;;;;10124579;28;20055;-70
2022/09/11 13:56:37;;;;;;;7.57;6.97;;;;;;;;;;10133293;28;20069;-70
2022/09/11 14:01:35;;;;;;;8.13;7.53;;;;;;;;;;10116806;28;20050;-70
2022/09/11 14:06:33;;;;;;;7.75;7.20;;;;;;;;;;10143717;28;20070;-70
2022/09/11 14:11:30;;;;;;;8.43;7.82;;;;;;;;;;10155941;28;20046;-70
2022/09/11 14:16:30;;;;;;;7.70;7.20;;;;;;;;;;10154709;28;20042;-70
2022/09/11 14:21:34;;;;;;;8.75;8.05;;;;;;;;;;10155449;28;20050;-70
2022/09/11 14:26:31;;;;;;;7.82;7.22;;;;;;;;;;10151168;28;20050;-70
2022/09/11 14:31:33;;;;;;;7.80;7.20;;;;;;;;;;10154166;28;20053;-70
2022/09/11 14:36:29;;;;;;;8.30;7.70;;;;;;;;;;10154437;28;20536;-70
2022/09/11 14:41:26;;;;;;;7.95;7.35;;;;;;;;;;10154354;28;20050;-70
2022/09/11 14:46:22;;;;;;;7.65;7.15;;;;;;;;;;10154279;28;20050;-70
2022/09/11 14:51:19;;;;;;;7.63;7.03;;;;;;;;;;10153900;28;20081;-70
2022/09/11 14:56:15;;;;;;;7.75;7.15;;;;;;;;;;10154336;28;20046;-69
2022/09/11 15:01:12;;;;;;;8.70;8.10;;;;;;;;;;10153242;28;20050;-70
2022/09/11 15:06:12;;;;;;;8.50;7.90;;;;;;;;;;10153969;28;20046;-70
2022/09/11 15:11:08;;;;;;;9.38;8.57;;;;;;;;;;10153651;28;20125;-70
2022/09/11 15:16:04;;;;;;;8.10;7.50;;;;;;;;;;10141678;28;20062;-70
2022/09/11 15:21:01;;;;;;;8.45;7.85;;;;;;;;;;10114133;28;20066;-70
2022/09/11 15:26:01;;;;;;;8.10;7.50;;;;;;;;;;10136147;28;20042;-70
2022/09/11 15:31:01;;;;;;;9.38;8.68;;;;;;;;;;10152898;28;20050;-70
2022/09/11 15:36:02;;;;;;;8.10;7.60;;;;;;;;;;10136864;28;20503;-70
2022/09/11 15:40:58;;;;;;;7.90;7.15;;;;;;;;;;10148261;28;20523;-70
2022/09/11 15:45:55;;;;;;;7.97;7.30;;;;;;;;;;10144275;28;20050;-70
2022/09/11 15:51:00;;;;;;;7.45;6.85;;;;;;;;;;10160938;28;20050;-70
2022/09/11 15:56:16;;;;;;;7.45;6.88;;;;;;;;;;10160036;28;20046;-70
2022/09/11 16:01:17;;;;;;;7.50;7.00;;;;;;;;;;10120820;28;20057;-70
2022/09/11 16:06:13;;;;;;;8.13;7.47;;;;;;;;;;10133371;28;20571;-70
2022/09/11 16:11:10;;;;;;;7.80;7.20;;;;;;;;;;10121092;28;20054;-70
2022/09/11 16:16:07;;;;;;;7.72;7.00;;;;;;;;;;10143189;28;20420;-70
2022/09/11 16:21:04;;;;;;;7.20;6.70;;;;;;;;;;10159718;28;20267;-70
2022/09/11 16:26:01;;;;;;;8.85;6.70;;;;;;;;;;10159184;28;20500;-70
2022/09/11 16:30:57;;;;;;;7.50;6.90;;;;;;;;;;10157899;28;20042;-70
2022/09/11 16:36:01;;;;;;;7.95;7.35;;;;;;;;;;10158706;28;20046;-70
2022/09/11 16:41:00;;;;;;;7.82;7.32;;;;;;;;;;10157762;28;20048;-70
2022/09/11 16:45:57;;;;;;;7.45;6.95;;;;;;;;;;10151577;28;20390;-70
2022/09/11 16:50:54;;;;;;;7.55;7.00;;;;;;;;;;10157214;28;20096;-70
2022/09/11 16:55:52;;;;;;;7.88;7.28;;;;;;;;;;10158718;28;20058;-70
2022/09/11 17:00:48;;;;;;;8.75;8.07;;;;;;;;;;10137208;28;20047;-70
2022/09/11 17:05:46;;;;;;;7.90;7.40;;;;;;;;;;10140503;28;20415;-70
2022/09/11 17:10:43;;;;;;;8.18;7.57;;;;;;;;;;10124962;28;20047;-70
2022/09/11 17:15:41;;;;;;;9.18;8.35;;;;;;;;;;10138304;28;20049;-70
2022/09/11 17:20:37;;;;;;;8.80;8.20;;;;;;;;;;10157206;28;20050;-70
2022/09/11 17:25:37;;;;;;;8.45;7.85;;;;;;;;;;10151133;28;20646;-70
2022/09/11 17:30:35;;;;;;;9.80;9.00;;;;;;;;;;10157191;28;20057;-70
2022/09/11 17:35:31;;;;;;;10.88;10.07;;;;;;;;;;10139910;28;20042;-70
2022/09/11 17:40:29;;;;;;;11.52;10.70;;;;;;;;;;10154580;28;20718;-70
2022/09/11 17:45:25;;;;;;;11.38;10.55;;;;;;;;;;10136055;28;20053;-70
2022/09/11 17:50:22;;;;;;;11.75;10.95;;;;;;;;;;10142473;28;20055;-70
2022/09/11 17:55:18;;;;;;;14.05;13.07;;;;;;;;;;10135103;28;20436;-70
2022/09/11 18:00:14;;;;;;;14.75;13.65;;;;;;;;;;10138418;28;20047;-70
2022/09/11 18:05:11;;;;;;;14.07;13.18;;;;;;;;;;10132340;28;20744;-70
2022/09/11 18:10:07;;;;;;;14.45;13.55;;;;;;;;;;10155018;28;20046;-70
2022/09/11 18:15:04;;;;;;;14.10;13.20;;;;;;;;;;10154933;28;20057;-70
2022/09/11 18:20:02;;;;;;;15.20;14.10;;;;;;;;;;10156444;28;20485;-70
2022/09/11 18:24:58;;;;;;;14.25;13.35;;;;;;;;;;10154876;28;20050;-69
2022/09/11 18:29:55;;;;;;;14.48;13.57;;;;;;;;;;10154682;28;20046;-70
2022/09/11 18:34:51;;;;;;;13.50;12.68;;;;;;;;;;10154060;28;20043;-70
2022/09/11 18:39:47;;;;;;;14.30;13.32;;;;;;;;;;10154441;28;20065;-70
2022/09/11 18:44:44;;;;;;;12.93;12.02;;;;;;;;;;10153312;28;20058;-70
2022/09/11 18:49:40;;;;;;;14.05;12.95;;;;;;;;;;10154125;28;20042;-70
2022/09/11 18:54:37;;;;;;;15.95;14.85;;;;;;;;;;10153247;28;20057;-70
2022/09/11 18:59:33;;;;;;;16.38;15.13;;;;;;;;;;10153632;28;20072;-70
2022/09/11 19:04:30;;;;;;;16.13;14.95;;;;;;;;;;10153553;28;20042;-70
2022/09/11 19:09:28;;;;;;;19.08;17.73;;;;;;;;;;10144869;28;20053;-70
2022/09/11 19:14:24;;;;;;;16.67;15.52;;;;;;;;;;10123031;28;20516;-70
2022/09/11 19:19:20;;;;;;;13.85;12.95;;;;;;;;;;10152728;28;20077;-70
2022/09/11 19:24:18;;;;;;;15.20;14.25;;;;;;;;;;10152778;28;20535;-70
2022/09/11 19:29:14;;;;;;;14.20;13.27;;;;;;;;;;10116637;28;20066;-70
2022/09/11 19:34:11;;;;;;;15.52;14.43;;;;;;;;;;10116156;28;20055;-70
2022/09/11 19:39:08;;;;;;;15.82;14.73;;;;;;;;;;10113639;28;20058;-70
2022/09/11 19:44:06;;;;;;;17.70;16.08;;;;;;;;;;10127937;28;20061;-70
2022/09/11 19:49:02;;;;;;;17.92;16.83;;;;;;;;;;10153222;28;20050;-70
2022/09/11 19:54:01;;;;;;;18.70;17.60;;;;;;;;;;10151990;28;20046;-70
2022/09/11 19:58:57;;;;;;;20.05;18.75;;;;;;;;;;10152203;28;20047;-70
2022/09/11 20:03:55;;;;;;;20.60;19.27;;;;;;;;;;10152094;28;20377;-70
2022/09/11 20:08:52;;;;;;;21.83;20.33;;;;;;;;;;10135148;28;20046;-70
2022/09/11 20:14:08;;;;;;;23.35;21.95;;;;;;;;;;10121847;28;20042;-70
2022/09/11 20:19:05;;;;;;;27.50;25.58;;;;;;;;;;10120114;28;20050;-70
2022/09/11 20:24:03;;;;;;;26.35;24.85;;;;;;;;;;10119991;28;20043;-70
2022/09/11 20:29:05;;;;;;;30.55;28.85;;;;;;;;;;10122512;28;20039;-70
2022/09/11 20:34:02;;;;;;;30.00;28.30;;;;;;;;;;10126768;28;20061;-70
2022/09/11 20:38:58;;;;;;;35.17;33.17;;;;;;;;;;10159536;28;20073;-70
2022/09/11 20:43:56;;;;;;;37.20;35.13;;;;;;;;;;10158380;28;20035;-69
2022/09/11 20:48:53;;;;;;;39.90;37.70;;;;;;;;;;10158870;28;20056;-69
2022/09/11 20:53:49;;;;;;;44.28;41.72;;;;;;;;;;10158328;28;20046;-70
2022/09/11 20:58:46;;;;;;;44.15;41.75;;;;;;;;;;10158411;28;20420;-70
2022/09/11 21:03:43;;;;;;;46.90;44.30;;;;;;;;;;10144012;28;20044;-69
2022/09/11 21:08:41;;;;;;;50.35;47.58;;;;;;;;;;10157824;28;20057;-70
2022/09/11 21:13:38;;;;;;;49.20;46.50;;;;;;;;;;10131702;28;20049;-70
2022/09/11 21:18:34;;;;;;;53.95;50.80;;;;;;;;;;10157139;28;20046;-69
2022/09/11 21:23:31;;;;;;;59.72;56.53;;;;;;;;;;10156081;28;20056;-70
2022/09/11 21:28:27;;;;;;;61.80;58.45;;;;;;;;;;10156872;28;20789;-69
2022/09/11 21:33:24;;;;;;;63.85;60.45;;;;;;;;;;10157364;28;20066;-70
2022/09/11 21:38:21;;;;;;;68.60;64.95;;;;;;;;;;10154623;28;20038;-69
2022/09/11 21:43:17;;;;;;;74.47;70.57;;;;;;;;;;10156574;28;20505;-69
2022/09/11 21:48:14;;;;;;;83.25;78.82;;;;;;;;;;10155858;28;20054;-70
2022/09/11 21:53:10;;;;;;;82.13;77.82;;;;;;;;;;10155865;28;20046;-69
2022/09/11 21:58:07;;;;;;;90.60;85.93;;;;;;;;;;10156076;28;20050;-69
2022/09/11 22:03:03;;;;;;;83.85;79.47;;;;;;;;;;10155875;28;20793;-70
2022/09/11 22:07:59;;;;;;;84.32;79.82;;;;;;;;;;10155826;28;20509;-69
2022/09/11 22:12:55;;;;;;;88.32;83.55;;;;;;;;;;10130941;28;20046;-69
2022/09/11 22:17:52;;;;;;;92.57;87.68;;;;;;;;;;10154644;28;20046;-69
2022/09/11 22:22:49;;;;;;;87.78;82.97;;;;;;;;;;10154943;28;20050;-69
2022/09/11 22:27:45;;;;;;;100.25;95.05;;;;;;;;;;10154767;28;20052;-70
2022/09/11 22:32:41;;;;;;;100.35;95.05;;;;;;;;;;10154553;28;20046;-69
2022/09/11 22:37:37;;;;;;;102.60;97.22;;;;;;;;;;10154307;28;20050;-70
2022/09/11 22:42:33;;;;;;;97.93;92.72;;;;;;;;;;10119036;28;20059;-69
2022/09/11 22:47:30;;;;;;;101.93;96.70;;;;;;;;;;10150611;28;20046;-69
2022/09/11 22:52:26;;;;;;;112.07;106.28;;;;;;;;;;10117547;28;20051;-69
2022/09/11 22:57:22;;;;;;;108.03;102.63;;;;;;;;;;10147789;28;20046;-70
2022/09/11 23:02:24;;;;;;;111.43;105.47;;;;;;;;;;10113653;28;20050;-69
2022/09/11 23:07:20;;;;;;;107.10;101.15;;;;;;;;;;10148208;28;20050;-69
2022/09/11 23:12:16;;;;;;;114.25;108.22;;;;;;;;;;10153541;28;20046;-69
2022/09/11 23:17:13;;;;;;;107.70;102.03;;;;;;;;;;10153012;28;20050;-69
2022/09/11 23:22:09;;;;;;;110.38;104.57;;;;;;;;;;10152639;28;20046;-69
2022/09/11 23:27:05;;;;;;;112.25;106.45;;;;;;;;;;10152589;28;20056;-70
2022/09/11 23:32:01;;;;;;;117.65;111.70;;;;;;;;;;10153719;28;20051;-70
2022/09/11 23:36:58;;;;;;;115.15;109.10;;;;;;;;;;10152497;28;20057;-69
2022/09/11 23:41:54;;;;;;;115.13;109.22;;;;;;;;;;10152699;28;20057;-69
2022/09/11 23:46:50;;;;;;;113.22;107.47;;;;;;;;;;10152501;28;20042;-70
2022/09/11 23:51:47;;;;;;;119.55;113.28;;;;;;;;;;10152665;28;20053;-70
2022/09/11 23:56:44;;;;;;;117.53;111.35;;;;;;;;;;10152300;28;20081;-69
